Time;durP1;ratioP1;P1;durP2;ratioP2;P2;SDS_P1;SDS_P2;PMS_P1;PMS_P2;Temp;Humidity;BMP_temperature;BMP_pressure;BME280_temperature;BME280_humidity;BME280_pressure;Samples;Min_cycle;Max_cycle;Signal;HPM_P1;HPM_P2
2021/12/13 00:01:35;;;;;;;4.13;3.70;;;;;;;4.48;100.00;-23941.63;5052798;28;20160;-70
2021/12/13 00:04:10;;;;;;;6.10;4.30;;;;;;;4.82;100.00;-23951.28;5052580;28;20175;-70
2021/12/13 00:06:47;;;;;;;4.87;3.90;;;;;;;4.32;100.00;-23937.19;5052718;28;20202;-69
2021/12/13 00:09:21;;;;;;;4.43;3.90;;;;;;;4.81;100.00;-23950.84;5053975;28;20167;-71
2021/12/13 00:11:53;;;;;;;4.70;3.90;;;;;;;4.82;100.00;-23951.16;5054499;28;20171;-71
2021/12/13 00:14:27;;;;;;;6.17;4.00;;;;;;;4.79;100.00;-23950.28;5054246;28;20170;-70
2021/12/13 00:17:05;;;;;;;6.07;3.90;;;;;;;4.65;100.00;-23946.44;5054238;28;20175;-70
2021/12/13 00:20:04;;;;;;;5.17;4.03;;;;;;;4.80;100.00;-23950.56;5053288;28;20630;-70
2021/12/13 00:22:37;;;;;;;4.23;3.40;;;;;;;4.74;100.00;-23948.88;5052396;28;20159;-69
2021/12/13 00:25:21;;;;;;;4.40;3.80;;;;;;;4.76;100.00;-23949.44;5053107;28;20215;-69
2021/12/13 00:27:50;;;;;;;4.37;3.80;;;;;;;4.67;100.00;-23947.03;5052263;28;20194;-69
2021/12/13 00:30:40;;;;;;;4.23;3.57;;;;;;;4.87;100.00;-23952.56;5052429;28;20186;-70
2021/12/13 00:33:27;;;;;;;4.90;3.83;;;;;;;4.72;100.00;-23948.31;5051032;28;20194;-70
2021/12/13 00:36:01;;;;;;;4.20;3.60;;;;;;;4.77;100.00;-23949.88;5052510;28;20190;-69
2021/12/13 00:38:29;;;;;;;4.87;4.00;;;;;;;4.88;100.00;-23952.84;5052029;28;20213;-69
2021/12/13 00:41:05;;;;;;;4.17;3.70;;;;;;;4.38;100.00;-23938.75;5052769;28;20182;-70
2021/12/13 00:44:01;;;;;;;4.77;4.27;;;;;;;4.81;100.00;-23951.00;5052211;28;20280;-69
2021/12/13 00:46:28;;;;;;;4.17;3.50;;;;;;;4.48;100.00;-23941.63;5050701;28;20214;-69
2021/12/13 00:48:56;;;;;;;4.10;3.70;;;;;;;4.78;100.00;-23950.00;5052188;28;20209;-69
2021/12/13 00:51:27;;;;;;;4.43;3.67;;;;;;;4.74;100.00;-23948.88;5051755;28;20681;-69
2021/12/13 00:53:56;;;;;;;4.10;3.47;;;;;;;4.59;100.00;-23944.75;5051616;28;20672;-69
2021/12/13 00:56:44;;;;;;;5.17;3.83;;;;;;;4.76;100.00;-23949.59;5051928;28;20171;-69
2021/12/13 00:59:39;;;;;;;4.10;3.70;;;;;;;4.34;100.00;-23937.78;5049227;28;20343;-70
2021/12/13 01:02:08;;;;;;;3.97;3.57;;;;;;;4.79;100.00;-23950.44;5051245;28;20216;-70
2021/12/13 01:05:01;;;;;;;4.87;3.80;;;;;;;4.76;100.00;-23949.44;5052312;28;20530;-69
2021/12/13 01:07:33;;;;;;;4.67;3.77;;;;;;;4.71;100.00;-23948.16;5052239;28;20202;-70
2021/12/13 01:10:17;;;;;;;4.10;3.67;;;;;;;4.74;100.00;-23948.88;5052127;28;20173;-69
2021/12/13 01:12:44;;;;;;;3.77;3.37;;;;;;;4.62;100.00;-23945.59;5051606;28;20264;-69
2021/12/13 01:15:16;;;;;;;3.93;3.50;;;;;;;4.47;100.00;-23941.31;5050704;28;20182;-69
2021/12/13 01:20:32;;;;;;;4.47;3.87;;;;;;;4.50;100.00;-23942.03;5051961;28;20643;-70
2021/12/13 01:23:05;;;;;;;4.07;3.60;;;;;;;4.66;100.00;-23946.75;5051988;28;20155;-69
2021/12/13 01:26:28;;;;;;;4.20;3.57;;;;;;;4.40;100.00;-23939.34;5051727;28;20155;-69
2021/12/13 01:28:20;;;;;;;4.13;3.70;;;;;;;4.74;100.00;-23948.88;5050992;28;20566;-69
2021/12/13 01:30:59;;;;;;;4.27;3.43;;;;;;;4.33;100.00;-23937.34;5051964;28;20167;-70
2021/12/13 01:33:28;;;;;;;4.70;3.70;;;;;;;4.17;100.00;-23932.94;5051869;28;20194;-70
2021/12/13 01:36:02;;;;;;;3.93;3.53;;;;;;;4.35;100.00;-23937.91;5051568;28;20244;-70
2021/12/13 01:38:40;;;;;;;4.03;3.63;;;;;;;4.64;100.00;-23946.03;5051773;28;20159;-70
2021/12/13 01:41:15;;;;;;;4.70;3.90;;;;;;;4.34;100.00;-23937.63;5051632;28;20167;-70
2021/12/13 01:43:53;;;;;;;5.10;4.00;;;;;;;4.63;100.00;-23945.88;5051091;28;20313;-70
2021/12/13 01:46:21;;;;;;;3.93;3.40;;;;;;;4.63;100.00;-23945.75;5051631;28;20210;-71
2021/12/13 01:48:48;;;;;;;4.43;3.93;;;;;;;4.67;100.00;-23947.03;5051878;28;20171;-69
2021/12/13 01:51:19;;;;;;;4.20;3.80;;;;;;;4.72;100.00;-23948.31;5050398;28;20556;-70
2021/12/13 01:53:58;;;;;;;4.40;3.90;;;;;;;4.65;100.00;-23946.31;5051179;28;20155;-70
2021/12/13 02:02:16;;;;;;;4.20;3.70;;;;;;;4.71;100.00;-23948.03;5050879;28;20182;-69
2021/12/13 02:04:43;;;;;;;4.40;3.80;;;;;;;4.15;100.00;-23932.34;5051045;28;20276;-69
2021/12/13 02:07:10;;;;;;;4.17;3.47;;;;;;;4.13;100.00;-23931.78;5050509;28;20304;-69
2021/12/13 02:09:43;;;;;;;4.10;3.60;;;;;;;4.40;100.00;-23939.47;5050990;28;20178;-69
2021/12/13 02:12:15;;;;;;;4.50;3.70;;;;;;;4.16;100.00;-23932.50;5051403;28;20654;-70
2021/12/13 02:17:46;;;;;;;3.80;3.40;;;;;;;4.08;100.00;-23930.38;5054610;28;20228;-70
2021/12/13 02:20:36;;;;;;;4.27;3.53;;;;;;;4.44;100.00;-23940.63;5054294;28;20175;-69
2021/12/13 02:23:03;;;;;;;4.70;3.67;;;;;;;4.50;100.00;-23942.03;5055121;28;20198;-69
2021/12/13 02:25:34;;;;;;;6.47;3.70;;;;;;;4.06;100.00;-23929.78;5054827;28;20171;-70
2021/12/13 02:28:05;;;;;;;4.20;3.47;;;;;;;4.56;100.00;-23943.75;5055246;28;20206;-70
2021/12/13 02:30:34;;;;;;;4.60;3.90;;;;;;;4.56;100.00;-23943.88;5054906;28;20171;-70
2021/12/13 02:33:02;;;;;;;5.33;3.37;;;;;;;4.57;100.00;-23944.19;5054631;28;20173;-70
2021/12/13 02:35:31;;;;;;;5.80;3.90;;;;;;;4.59;100.00;-23944.59;5053194;28;20175;-69
2021/12/13 02:38:00;;;;;;;5.47;4.20;;;;;;;4.13;100.00;-23931.78;5054318;28;20175;-70
2021/12/13 02:40:25;;;;;;;5.27;4.00;;;;;;;4.45;100.00;-23940.91;5054541;28;20257;-70
2021/12/13 02:42:51;;;;;;;3.50;3.20;;;;;;;4.26;100.00;-23935.34;5052868;28;20365;-70
2021/12/13 02:45:32;;;;;;;4.20;3.47;;;;;;;4.39;100.00;-23939.06;5053622;28;20182;-70
2021/12/13 02:48:17;;;;;;;3.97;3.47;;;;;;;4.37;100.00;-23938.63;5054158;28;20210;-69
2021/12/13 02:51:17;;;;;;;4.90;3.53;;;;;;;4.51;100.00;-23942.31;5053820;28;20201;-70
2021/12/13 02:54:00;;;;;;;3.70;3.30;;;;;;;4.52;100.00;-23942.59;5054779;28;20202;-70
2021/12/13 02:56:29;;;;;;;3.90;3.27;;;;;;;4.54;100.00;-23943.31;5054602;28;20766;-69
2021/12/13 02:58:56;;;;;;;3.83;3.43;;;;;;;4.57;100.00;-23944.03;5053650;28;20182;-69
2021/12/13 03:01:45;;;;;;;3.63;2.97;;;;;;;4.54;100.00;-23943.19;5053953;28;20179;-69
2021/12/13 03:04:17;;;;;;;3.70;3.10;;;;;;;4.49;100.00;-23941.91;5052419;28;20186;-69
2021/12/13 03:07:00;;;;;;;3.73;3.33;;;;;;;4.37;100.00;-23938.63;5054144;28;20198;-70
2021/12/13 03:09:29;;;;;;;3.80;3.40;;;;;;;4.27;100.00;-23935.78;5053386;28;20249;-70
2021/12/13 03:11:57;;;;;;;3.83;3.20;;;;;;;4.42;100.00;-23939.91;5053395;28;20534;-70
2021/12/13 03:14:29;;;;;;;4.63;3.23;;;;;;;4.54;100.00;-23943.19;5053806;28;20305;-70
2021/12/13 03:17:06;;;;;;;3.90;3.13;;;;;;;4.52;100.00;-23942.59;5052546;28;20630;-70
2021/12/13 03:19:38;;;;;;;3.77;3.37;;;;;;;4.59;100.00;-23944.59;5052401;28;20167;-69
2021/12/13 03:22:22;;;;;;;3.50;3.20;;;;;;;4.62;100.00;-23945.47;5052263;28;20653;-70
2021/12/13 03:25:08;;;;;;;3.50;3.20;;;;;;;4.27;100.00;-23935.78;5052040;28;20583;-69
2021/12/13 03:28:04;;;;;;;3.50;3.20;;;;;;;4.61;100.00;-23945.16;5051791;28;20559;-70
2021/12/13 03:30:40;;;;;;;3.97;3.20;;;;;;;4.62;100.00;-23945.59;5053754;28;20178;-70
2021/12/13 03:33:10;;;;;;;3.50;3.20;;;;;;;4.18;100.00;-23933.06;5053265;28;20162;-69
2021/12/13 03:35:45;;;;;;;3.17;2.87;;;;;;;4.51;100.00;-23942.47;5052914;28;20550;-70
2021/12/13 03:38:42;;;;;;;3.47;3.17;;;;;;;4.64;100.00;-23946.03;5051941;28;20182;-69
2021/12/13 03:41:14;;;;;;;4.00;2.77;;;;;;;4.26;100.00;-23935.50;5052518;28;20191;-69
2021/12/13 03:43:54;;;;;;;3.20;2.83;;;;;;;4.21;100.00;-23934.06;5053446;28;20242;-70
2021/12/13 03:46:23;;;;;;;3.10;2.80;;;;;;;4.23;100.00;-23934.63;5053147;28;20163;-69
2021/12/13 03:48:51;;;;;;;3.27;2.73;;;;;;;4.46;100.00;-23941.03;5051132;28;20183;-70
2021/12/13 03:51:21;;;;;;;3.70;3.30;;;;;;;4.29;100.00;-23936.19;5052814;28;20178;-70
2021/12/13 03:53:50;;;;;;;3.30;3.00;;;;;;;4.36;100.00;-23938.19;5052819;28;20167;-70
2021/12/13 03:56:28;;;;;;;4.87;3.10;;;;;;;4.40;100.00;-23939.47;5052920;28;20719;-70
2021/12/13 03:58:59;;;;;;;3.13;2.83;;;;;;;4.58;100.00;-23944.47;5053011;28;20170;-71
2021/12/13 04:01:36;;;;;;;4.07;3.00;;;;;;;4.54;100.00;-23943.19;5052767;28;20197;-70
2021/12/13 04:04:05;;;;;;;3.30;2.67;;;;;;;4.01;100.00;-23928.38;5052867;28;20163;-70
2021/12/13 04:06:31;;;;;;;3.27;2.97;;;;;;;4.21;100.00;-23934.06;5051993;28;20297;-70
2021/12/13 04:08:59;;;;;;;3.10;2.73;;;;;;;4.35;100.00;-23938.06;5050551;28;20320;-71
2021/12/13 04:11:27;;;;;;;3.37;3.07;;;;;;;4.49;100.00;-23941.75;5050067;28;20608;-70
2021/12/13 04:14:04;;;;;;;2.97;2.60;;;;;;;4.42;100.00;-23940.03;5050802;28;20214;-70
2021/12/13 04:16:49;;;;;;;4.70;2.90;;;;;;;4.48;100.00;-23941.47;5049888;28;20229;-70
2021/12/13 04:19:22;;;;;;;4.00;2.80;;;;;;;4.28;100.00;-23936.06;5051210;28;20657;-70
2021/12/13 04:21:58;;;;;;;3.07;2.77;;;;;;;4.54;100.00;-23943.31;5049007;28;20228;-70
2021/12/13 04:24:53;;;;;;;3.30;2.80;;;;;;;4.42;100.00;-23940.03;5051407;28;20178;-70
2021/12/13 04:27:27;;;;;;;3.10;2.80;;;;;;;4.17;100.00;-23932.94;5048003;28;20226;-70
2021/12/13 04:29:57;;;;;;;3.03;2.73;;;;;;;4.35;100.00;-23937.91;5052563;28;20187;-70
2021/12/13 04:32:34;;;;;;;4.27;3.30;;;;;;;4.53;100.00;-23942.91;5050918;28;20208;-70
2021/12/13 04:35:08;;;;;;;3.47;2.97;;;;;;;4.32;100.00;-23937.19;5051589;28;20182;-70
2021/12/13 04:37:42;;;;;;;4.60;3.23;;;;;;;4.18;100.00;-23933.22;5052529;28;20198;-71
2021/12/13 04:40:12;;;;;;;3.57;3.10;;;;;;;4.24;100.00;-23934.91;5052036;28;20522;-70
2021/12/13 04:42:39;;;;;;;3.87;3.13;;;;;;;4.40;100.00;-23939.47;5051775;28;20316;-70
2021/12/13 04:45:18;;;;;;;4.10;2.83;;;;;;;3.89;100.00;-23924.94;5050532;28;20661;-70
2021/12/13 04:48:01;;;;;;;4.17;3.17;;;;;;;4.32;100.00;-23937.06;5051870;28;20210;-71
2021/12/13 04:50:33;;;;;;;4.40;3.00;;;;;;;4.37;100.00;-23938.63;5051721;28;20182;-70
2021/12/13 04:53:00;;;;;;;6.10;3.17;;;;;;;4.30;100.00;-23936.50;5052049;28;20183;-70
2021/12/13 04:55:30;;;;;;;3.87;3.20;;;;;;;4.24;100.00;-23934.91;5051707;28;20178;-71
2021/12/13 04:58:00;;;;;;;3.53;3.00;;;;;;;4.07;100.00;-23930.06;5051881;28;20175;-69
2021/12/13 05:00:30;;;;;;;3.40;3.10;;;;;;;4.26;100.00;-23935.34;5051805;28;20174;-71
2021/12/13 05:02:59;;;;;;;5.47;2.87;;;;;;;3.91;100.00;-23925.53;5051833;28;20175;-69
2021/12/13 05:05:26;;;;;;;7.47;3.20;;;;;;;4.20;100.00;-23933.78;5052141;28;20262;-70
2021/12/13 05:07:52;;;;;;;4.17;3.50;;;;;;;3.87;100.00;-23924.38;5051473;28;20228;-70
2021/12/13 05:10:18;;;;;;;3.80;3.30;;;;;;;4.26;100.00;-23935.34;5051412;28;20549;-70
2021/12/13 05:13:06;;;;;;;3.93;3.10;;;;;;;4.11;100.00;-23931.22;5051432;28;20174;-70
2021/12/13 05:15:33;;;;;;;4.53;3.47;;;;;;;4.13;100.00;-23931.78;5051773;28;20285;-72
2021/12/13 05:18:00;;;;;;;4.07;3.57;;;;;;;3.58;100.00;-23916.25;5050180;28;20571;-72
2021/12/13 05:20:30;;;;;;;3.53;3.10;;;;;;;3.95;100.00;-23926.81;5051042;28;20182;-71
2021/12/13 05:23:00;;;;;;;3.97;3.20;;;;;;;3.74;100.00;-23920.69;5050488;28;20258;-72
2021/12/13 05:25:31;;;;;;;4.83;3.57;;;;;;;4.14;100.00;-23932.06;5050866;28;20163;-73
2021/12/13 05:28:19;;;;;;;4.00;3.53;;;;;;;4.06;100.00;-23929.78;5050740;28;20296;-71
2021/12/13 05:30:54;;;;;;;5.07;4.00;;;;;;;3.98;100.00;-23927.50;5050530;28;20204;-73
2021/12/13 05:33:21;;;;;;;5.93;4.20;;;;;;;3.95;100.00;-23926.81;5050112;28;20280;-72
2021/12/13 05:35:50;;;;;;;6.80;4.63;;;;;;;3.50;100.00;-23914.13;5051129;28;20183;-73
2021/12/13 05:38:41;;;;;;;8.27;5.20;;;;;;;3.91;100.00;-23925.66;5049486;28;20178;-73
2021/12/13 05:41:10;;;;;;;7.60;5.10;;;;;;;3.81;100.00;-23922.66;5044564;28;20171;-72
2021/12/13 05:43:52;;;;;;;7.03;5.07;;;;;;;3.75;100.00;-23921.09;5042177;28;20215;-73
2021/12/13 05:46:26;;;;;;;8.33;5.70;;;;;;;3.35;100.00;-23909.84;5065758;28;20215;-73
2021/12/13 05:48:56;;;;;;;8.50;5.67;;;;;;;3.61;100.00;-23916.97;5059983;28;20532;-71
2021/12/13 05:51:37;;;;;;;10.50;5.63;;;;;;;3.17;100.00;-23904.56;5062586;28;20178;-71
2021/12/13 05:54:23;;;;;;;8.23;5.27;;;;;;;3.50;100.00;-23914.13;5057849;28;20665;-71
2021/12/13 05:56:54;;;;;;;7.73;5.07;;;;;;;3.07;100.00;-23902.00;5052613;28;20236;-71
2021/12/13 05:59:25;;;;;;;6.87;5.20;;;;;;;3.13;100.00;-23903.56;5054932;28;20206;-69
2021/12/13 06:01:59;;;;;;;7.17;5.20;;;;;;;2.98;100.00;-23899.28;5054740;28;20257;-69
2021/12/13 06:04:39;;;;;;;7.47;5.17;;;;;;;2.97;100.00;-23899.00;5054295;28;20650;-70
2021/12/13 06:07:15;;;;;;;9.43;5.50;;;;;;;2.94;100.00;-23898.16;5053110;28;20547;-69
2021/12/13 06:09:40;;;;;;;6.43;5.00;;;;;;;3.32;100.00;-23909.00;5051559;28;20193;-70
2021/12/13 06:12:09;;;;;;;6.70;4.80;;;;;;;3.14;100.00;-23903.84;5051434;28;20231;-68
2021/12/13 06:14:35;;;;;;;6.83;4.70;;;;;;;2.95;100.00;-23898.44;5053818;28;20509;-68
2021/12/13 06:17:21;;;;;;;10.33;4.93;;;;;;;3.15;100.00;-23904.13;5052062;28;20219;-69
2021/12/13 06:20:20;;;;;;;6.93;4.50;;;;;;;2.46;100.00;-23884.75;5054157;28;20243;-71
2021/12/13 06:22:46;;;;;;;6.77;5.17;;;;;;;3.04;100.00;-23901.00;5054355;28;20179;-70
2021/12/13 06:25:16;;;;;;;5.90;4.40;;;;;;;2.77;100.00;-23893.44;5054074;28;20220;-69
2021/12/13 06:27:45;;;;;;;5.80;4.43;;;;;;;2.94;100.00;-23898.28;5053765;28;20282;-70
2021/12/13 06:30:33;;;;;;;8.07;4.77;;;;;;;2.91;100.00;-23897.44;5053585;28;20181;-69
2021/12/13 06:33:01;;;;;;;7.57;4.70;;;;;;;1.71;100.00;-23863.59;5054165;28;20216;-71
2021/12/13 06:35:46;;;;;;;7.37;5.20;;;;;;;2.91;100.00;-23897.28;5052538;28;20312;-71
2021/12/13 06:38:27;;;;;;;5.27;4.43;;;;;;;2.87;100.00;-23896.28;5051983;28;20186;-71
2021/12/13 06:40:52;;;;;;;5.67;4.50;;;;;;;2.77;100.00;-23893.44;5044627;28;20314;-70
2021/12/13 06:43:56;;;;;;;5.10;4.30;;;;;;;2.87;100.00;-23896.28;5053452;28;20214;-71
2021/12/13 06:46:24;;;;;;;6.43;4.80;;;;;;;2.86;100.00;-23896.00;5056830;28;20205;-71
2021/12/13 06:49:04;;;;;;;7.33;5.07;;;;;;;2.88;100.00;-23896.59;5052379;28;20179;-70
2021/12/13 06:51:55;;;;;;;5.47;4.53;;;;;;;2.85;100.00;-23895.72;5053717;28;20240;-70
2021/12/13 06:54:35;;;;;;;6.83;5.07;;;;;;;2.81;100.00;-23894.44;5053799;28;20171;-70
2021/12/13 06:57:06;;;;;;;7.73;5.07;;;;;;;2.85;100.00;-23895.72;5050743;28;20189;-70
2021/12/13 06:59:36;;;;;;;6.33;5.23;;;;;;;2.85;100.00;-23895.72;5050922;28;20178;-69
2021/12/13 07:02:05;;;;;;;7.13;5.20;;;;;;;3.03;100.00;-23900.72;5053882;28;20187;-69
2021/12/13 07:04:50;;;;;;;7.07;5.20;;;;;;;2.62;100.00;-23889.31;5051752;28;20175;-70
2021/12/13 07:07:16;;;;;;;6.27;4.90;;;;;;;3.07;100.00;-23901.84;5052591;28;20198;-71
2021/12/13 07:09:54;;;;;;;6.17;4.50;;;;;;;2.65;100.00;-23890.16;5052975;28;20178;-69
2021/12/13 07:12:21;;;;;;;5.53;4.63;;;;;;;2.90;100.00;-23897.16;5052663;28;20181;-69
2021/12/13 07:14:48;;;;;;;6.57;5.37;;;;;;;2.67;100.00;-23890.72;5052782;28;20175;-68
2021/12/13 07:17:20;;;;;;;6.57;5.10;;;;;;;2.97;100.00;-23899.00;5052970;28;20175;-69
2021/12/13 07:19:48;;;;;;;5.97;4.93;;;;;;;2.99;100.00;-23899.72;5052320;28;20240;-71
2021/12/13 07:22:23;;;;;;;7.10;5.10;;;;;;;2.68;100.00;-23891.00;5052424;28;20240;-69
2021/12/13 07:25:04;;;;;;;7.63;5.43;;;;;;;3.06;100.00;-23901.56;5052917;28;20177;-69
2021/12/13 07:27:34;;;;;;;7.17;5.20;;;;;;;2.99;100.00;-23899.72;5052618;28;20195;-69
2021/12/13 07:30:25;;;;;;;7.07;5.43;;;;;;;2.90;100.00;-23897.16;5052955;28;20220;-70
2021/12/13 07:32:58;;;;;;;9.07;5.57;;;;;;;2.90;100.00;-23897.00;5051385;28;20649;-69
2021/12/13 07:35:46;;;;;;;7.60;5.73;;;;;;;2.94;100.00;-23898.16;5084988;28;20618;-69
2021/12/13 07:38:17;;;;;;;6.67;5.47;;;;;;;2.96;100.00;-23898.72;5053078;28;20186;-69
2021/12/13 07:40:45;;;;;;;7.80;5.80;;;;;;;2.99;100.00;-23899.56;5051884;28;20167;-70
2021/12/13 07:43:19;;;;;;;9.20;5.90;;;;;;;2.56;100.00;-23887.59;5050607;28;20238;-70
2021/12/13 07:45:47;;;;;;;8.07;5.53;;;;;;;3.05;100.00;-23901.28;5052296;28;20712;-73
2021/12/13 07:48:19;;;;;;;8.77;6.27;;;;;;;3.04;100.00;-23901.00;5052039;28;20279;-70
2021/12/13 07:50:57;;;;;;;7.20;5.47;;;;;;;2.56;100.00;-23887.59;5052737;28;20210;-73
2021/12/13 07:53:26;;;;;;;8.40;5.73;;;;;;;2.59;100.00;-23888.31;5052144;28;20639;-69
2021/12/13 07:55:52;;;;;;;7.30;5.53;;;;;;;2.78;100.00;-23893.59;5050643;28;20175;-73
2021/12/13 07:58:43;;;;;;;7.77;5.87;;;;;;;2.71;100.00;-23891.72;5051858;28;20345;-72
2021/12/13 08:01:18;;;;;;;8.80;5.80;;;;;;;2.63;100.00;-23889.59;5052688;28;20266;-73
2021/12/13 08:03:54;;;;;;;8.30;6.00;;;;;;;2.81;100.00;-23894.59;5050940;28;20213;-73
2021/12/13 08:06:25;;;;;;;8.13;5.97;;;;;;;2.91;100.00;-23897.28;5052622;28;20175;-73
2021/12/13 08:08:56;;;;;;;7.80;5.87;;;;;;;3.13;100.00;-23903.44;5052398;28;20167;-72
2021/12/13 08:11:38;;;;;;;8.50;5.80;;;;;;;3.00;100.00;-23900.00;5051145;28;20610;-73
2021/12/13 08:14:03;;;;;;;9.73;6.27;;;;;;;3.03;100.00;-23900.72;5049653;28;20186;-72
2021/12/13 08:16:36;;;;;;;8.57;6.17;;;;;;;3.22;100.00;-23906.13;5051041;28;20665;-73
2021/12/13 08:19:13;;;;;;;6.80;5.70;;;;;;;3.26;100.00;-23907.13;5052147;28;20181;-73
2021/12/13 08:21:54;;;;;;;8.97;6.53;;;;;;;3.24;100.00;-23906.72;5052785;28;20502;-73
2021/12/13 08:24:27;;;;;;;8.33;6.17;;;;;;;3.07;100.00;-23901.84;5051531;28;20283;-73
2021/12/13 08:26:58;;;;;;;7.70;5.97;;;;;;;3.02;100.00;-23900.56;5052528;28;20221;-73
2021/12/13 08:29:31;;;;;;;7.97;5.97;;;;;;;3.32;100.00;-23908.84;5051919;28;20672;-73
2021/12/13 08:31:59;;;;;;;8.80;5.83;;;;;;;3.28;100.00;-23907.84;5051388;28;20182;-72
2021/12/13 08:34:32;;;;;;;8.80;6.33;;;;;;;2.88;100.00;-23896.44;5052177;28;20179;-73
2021/12/13 08:36:59;;;;;;;9.50;6.70;;;;;;;3.24;100.00;-23906.72;5050525;28;20182;-72
2021/12/13 08:39:36;;;;;;;9.13;5.93;;;;;;;2.85;100.00;-23895.59;5052354;28;20177;-74
2021/12/13 08:42:10;;;;;;;7.47;5.50;;;;;;;3.17;100.00;-23904.72;5051982;28;20229;-72
2021/12/13 08:44:59;;;;;;;6.93;5.73;;;;;;;3.04;100.00;-23901.00;5052413;28;20199;-72
2021/12/13 08:47:34;;;;;;;8.03;6.20;;;;;;;3.24;100.00;-23906.56;5052198;28;20859;-72
2021/12/13 08:50:08;;;;;;;8.77;6.13;;;;;;;2.88;100.00;-23896.59;5051946;28;20169;-72
2021/12/13 08:52:38;;;;;;;7.97;6.00;;;;;;;3.21;100.00;-23905.84;5050487;28;20173;-72
2021/12/13 08:55:20;;;;;;;7.80;5.90;;;;;;;3.19;100.00;-23905.28;5051725;28;20236;-72
2021/12/13 08:58:00;;;;;;;9.50;5.87;;;;;;;2.96;100.00;-23898.72;5051651;28;20181;-73
2021/12/13 09:00:25;;;;;;;8.40;5.43;;;;;;;2.96;100.00;-23898.88;5050728;28;20190;-72
2021/12/13 09:03:00;;;;;;;7.43;5.67;;;;;;;3.06;100.00;-23901.56;5051685;28;20185;-72
2021/12/13 09:05:32;;;;;;;8.30;5.97;;;;;;;3.06;100.00;-23901.72;5051264;28;20187;-72
2021/12/13 09:08:05;;;;;;;7.80;5.90;;;;;;;2.66;100.00;-23890.44;5051822;28;20582;-72
2021/12/13 09:10:51;;;;;;;8.37;5.83;;;;;;;2.74;100.00;-23892.44;5051534;28;20163;-72
2021/12/13 09:13:32;;;;;;;10.47;6.37;;;;;;;3.06;100.00;-23901.72;5052082;28;20189;-73
2021/12/13 09:15:58;;;;;;;9.20;5.97;;;;;;;3.08;100.00;-23902.28;5051833;28;20693;-73
2021/12/13 09:18:24;;;;;;;9.57;5.90;;;;;;;2.72;100.00;-23891.88;5050203;28;20182;-74
2021/12/13 09:20:53;;;;;;;8.57;6.20;;;;;;;3.01;100.00;-23900.16;5051369;28;20557;-73
2021/12/13 09:23:21;;;;;;;8.03;5.67;;;;;;;3.02;100.00;-23900.44;5056192;28;20175;-73
2021/12/13 09:25:46;;;;;;;7.60;5.73;;;;;;;2.97;100.00;-23899.00;5055589;28;20175;-73
2021/12/13 09:28:14;;;;;;;7.57;6.07;;;;;;;2.97;100.00;-23899.00;5055201;28;20335;-73
2021/12/13 09:31:14;;;;;;;8.17;6.17;;;;;;;2.99;100.00;-23899.56;5055723;28;20175;-73
2021/12/13 09:33:56;;;;;;;9.67;6.10;;;;;;;2.50;100.00;-23885.72;5055714;28;20210;-73
2021/12/13 09:36:35;;;;;;;8.03;5.90;;;;;;;2.94;100.00;-23898.16;5055703;28;20182;-72
2021/12/13 09:39:16;;;;;;;7.73;5.83;;;;;;;2.89;100.00;-23896.72;5055562;28;20171;-73
2021/12/13 09:41:42;;;;;;;8.17;6.30;;;;;;;2.90;100.00;-23897.00;5055228;28;20182;-74
2021/12/13 09:44:11;;;;;;;8.03;6.20;;;;;;;2.85;100.00;-23895.72;5055610;28;20162;-74
2021/12/13 09:46:41;;;;;;;8.63;6.30;;;;;;;2.83;100.00;-23895.16;5055531;28;20183;-74
2021/12/13 09:49:25;;;;;;;6.93;5.47;;;;;;;2.38;100.00;-23882.44;5055529;28;20537;-73
2021/12/13 09:51:57;;;;;;;7.00;5.67;;;;;;;2.84;100.00;-23895.28;5055418;28;20178;-72
2021/12/13 09:54:28;;;;;;;7.00;5.70;;;;;;;2.45;100.00;-23884.31;5055332;28;20258;-73
2021/12/13 09:56:54;;;;;;;8.40;6.10;;;;;;;2.89;100.00;-23896.88;5055239;28;20167;-73
2021/12/13 09:59:29;;;;;;;7.33;5.73;;;;;;;2.65;100.00;-23890.16;5055132;28;20178;-73
2021/12/13 10:02:03;;;;;;;7.20;5.40;;;;;;;2.73;100.00;-23892.16;5054779;28;20189;-73
2021/12/13 10:04:31;;;;;;;7.30;5.53;;;;;;;2.97;100.00;-23899.00;5054471;28;20158;-74
2021/12/13 10:07:09;;;;;;;8.07;5.50;;;;;;;2.98;100.00;-23899.28;5054873;28;20199;-73
2021/12/13 10:09:42;;;;;;;7.27;5.53;;;;;;;2.48;100.00;-23885.31;5055143;28;20275;-73
2021/12/13 10:12:16;;;;;;;8.87;5.87;;;;;;;2.74;100.00;-23892.44;5053552;28;20295;-72
2021/12/13 10:14:50;;;;;;;8.40;5.60;;;;;;;2.91;100.00;-23897.44;5054326;28;20225;-72
2021/12/13 10:17:22;;;;;;;6.53;5.07;;;;;;;3.04;100.00;-23901.00;5054850;28;20189;-72
2021/12/13 10:19:55;;;;;;;7.57;5.80;;;;;;;2.77;100.00;-23893.31;5054840;28;20199;-73
2021/12/13 10:22:24;;;;;;;7.70;5.80;;;;;;;2.78;100.00;-23893.59;5053237;28;20583;-72
2021/12/13 10:24:58;;;;;;;7.97;5.70;;;;;;;2.81;100.00;-23894.44;5053996;28;20183;-74
2021/12/13 10:27:24;;;;;;;6.93;5.57;;;;;;;2.74;100.00;-23892.44;5054089;28;20244;-73
2021/12/13 10:29:56;;;;;;;8.57;6.00;;;;;;;2.76;100.00;-23893.16;5054299;28;20178;-70
2021/12/13 10:32:32;;;;;;;8.30;6.00;;;;;;;2.77;100.00;-23893.31;5053779;28;20174;-69
2021/12/13 10:35:17;;;;;;;6.73;5.17;;;;;;;2.71;100.00;-23891.72;5053721;28;20257;-70
2021/12/13 10:37:47;;;;;;;8.33;6.03;;;;;;;2.68;100.00;-23891.00;5054268;28;20190;-73
2021/12/13 10:40:28;;;;;;;6.57;5.20;;;;;;;2.74;100.00;-23892.59;5053075;28;20317;-73
2021/12/13 10:43:19;;;;;;;8.20;5.50;;;;;;;2.22;100.00;-23877.88;5053905;28;20226;-73
2021/12/13 10:45:54;;;;;;;7.27;5.47;;;;;;;2.68;100.00;-23891.00;5049914;28;20514;-73
2021/12/13 10:48:36;;;;;;;8.57;6.00;;;;;;;2.49;100.00;-23885.44;5052091;28;20621;-73
2021/12/13 10:51:25;;;;;;;7.17;5.60;;;;;;;2.96;100.00;-23898.72;5052530;28;20186;-72
2021/12/13 10:53:52;;;;;;;7.80;5.50;;;;;;;2.83;100.00;-23895.00;5052350;28;20656;-72
2021/12/13 10:56:22;;;;;;;8.00;5.63;;;;;;;2.67;100.00;-23890.72;5053922;28;20186;-72
2021/12/13 10:58:53;;;;;;;7.57;5.63;;;;;;;2.62;100.00;-23889.31;5053192;28;20232;-71
2021/12/13 11:01:23;;;;;;;7.43;5.87;;;;;;;2.30;100.00;-23880.03;5053459;28;20202;-73
2021/12/13 11:03:51;;;;;;;7.10;5.33;;;;;;;2.72;100.00;-23891.88;5053489;28;20186;-72
2021/12/13 11:06:18;;;;;;;7.80;5.77;;;;;;;2.67;100.00;-23890.72;5053249;28;20262;-71
2021/12/13 11:08:44;;;;;;;7.03;5.17;;;;;;;2.79;100.00;-23894.00;5053316;28;20201;-71
2021/12/13 11:11:21;;;;;;;6.83;5.07;;;;;;;2.77;100.00;-23893.31;5053183;28;20232;-72
2021/12/13 11:13:50;;;;;;;7.33;5.80;;;;;;;2.76;100.00;-23893.00;5053138;28;20642;-69
2021/12/13 11:16:25;;;;;;;6.63;5.30;;;;;;;2.70;100.00;-23891.44;5053188;28;20184;-71
2021/12/13 11:18:52;;;;;;;7.70;5.67;;;;;;;2.68;100.00;-23891.00;5052841;28;20243;-70
2021/12/13 11:21:23;;;;;;;8.40;6.07;;;;;;;2.64;100.00;-23889.72;5053139;28;20178;-72
2021/12/13 11:23:49;;;;;;;7.30;5.70;;;;;;;2.62;100.00;-23889.31;5051362;28;20196;-72
2021/12/13 11:26:18;;;;;;;7.90;5.90;;;;;;;2.81;100.00;-23894.59;5052807;28;20666;-74
2021/12/13 11:28:44;;;;;;;7.63;5.30;;;;;;;2.30;100.00;-23880.03;5052937;28;20209;-73
2021/12/13 11:31:52;;;;;;;7.13;5.43;;;;;;;2.21;100.00;-23877.75;5052832;28;20183;-72
2021/12/13 11:34:46;;;;;;;8.27;5.27;;;;;;;2.73;100.00;-23892.16;5063886;28;20194;-71
2021/12/13 11:37:54;;;;;;;7.90;5.87;;;;;;;2.70;100.00;-23891.31;5062626;28;20194;-71
2021/12/13 11:40:27;;;;;;;7.40;5.27;;;;;;;2.70;100.00;-23891.31;5024933;28;20278;-72
2021/12/13 11:43:21;;;;;;;7.23;5.70;;;;;;;2.25;100.00;-23878.59;5047055;28;20237;-70
2021/12/13 11:46:03;;;;;;;7.00;5.47;;;;;;;2.36;100.00;-23881.88;5051368;28;20194;-71
2021/12/13 11:48:56;;;;;;;7.40;5.27;;;;;;;2.71;100.00;-23891.72;5050096;28;20315;-71
2021/12/13 11:51:23;;;;;;;6.60;5.00;;;;;;;2.51;100.00;-23886.16;5051372;28;20625;-71
2021/12/13 11:54:11;;;;;;;7.23;5.53;;;;;;;2.49;100.00;-23885.44;5051598;28;20179;-71
2021/12/13 11:57:07;;;;;;;8.00;5.60;;;;;;;2.35;100.00;-23881.47;5052017;28;20167;-72
2021/12/13 11:59:51;;;;;;;7.33;5.50;;;;;;;2.42;100.00;-23883.44;5052084;28;20273;-71
2021/12/13 12:02:24;;;;;;;8.80;5.83;;;;;;;2.43;100.00;-23883.75;5051571;28;20519;-71
2021/12/13 12:05:11;;;;;;;9.67;5.93;;;;;;;2.48;100.00;-23885.31;5051822;28;20187;-71
2021/12/13 12:07:55;;;;;;;8.27;5.33;;;;;;;2.45;100.00;-23884.31;5051963;28;20221;-72
2021/12/13 12:10:39;;;;;;;7.43;5.37;;;;;;;2.42;100.00;-23883.59;5050589;28;20213;-71
2021/12/13 12:13:30;;;;;;;7.87;5.97;;;;;;;2.51;100.00;-23886.16;5051514;28;20637;-72